createdAt,value
2019-01-23T00:03:16.687Z,68.33
2019-01-23T00:05:58.168Z,68.23
2019-01-23T00:12:06.966Z,68.08
2019-01-23T00:17:49.330Z,67.94
2019-01-23T00:20:20.000Z,67.91
2019-01-23T00:23:29.466Z,68.04
2019-01-23T00:26:29.804Z,68.13
2019-01-23T00:29:10.866Z,68.33
2019-01-23T00:31:52.587Z,68.63
2019-01-23T00:40:27.955Z,68.64
2019-01-23T00:43:37.031Z,68.55
2019-01-23T00:46:18.135Z,68.49
2019-01-23T00:49:07.522Z,68.48
2019-01-23T00:52:16.700Z,68.51
2019-01-23T00:55:26.143Z,68.50
2019-01-23T01:01:28.339Z,68.59
2019-01-23T01:04:09.391Z,68.56
2019-01-23T01:07:18.548Z,68.54
2019-01-23T01:10:19.305Z,68.44
2019-01-23T01:16:01.636Z,68.13
2019-01-23T01:19:10.785Z,68.17
2019-01-23T01:27:55.174Z,68.30
2019-01-23T01:33:38.381Z,68.69
2019-01-23T01:36:27.649Z,68.74
2019-01-23T01:39:16.999Z,68.61
2019-01-23T01:42:06.923Z,68.62
2019-01-23T01:45:07.699Z,68.69
2019-01-23T01:47:56.887Z,68.67
2019-01-23T01:51:04.779Z,68.58
2019-01-23T01:54:13.943Z,68.61
2019-01-23T01:56:55.742Z,68.47
2019-01-23T02:00:05.091Z,68.39
2019-01-23T02:06:06.448Z,68.91
2019-01-23T02:08:48.300Z,69.07
2019-01-23T02:11:37.804Z,69.05
2019-01-23T02:14:27.173Z,68.98
2019-01-23T02:19:50.820Z,69.16
2019-01-23T02:31:33.274Z,69.15
2019-01-23T02:34:41.215Z,69.25
2019-01-23T02:37:22.945Z,69.14
2019-01-23T02:40:04.647Z,69.24
2019-01-23T02:42:46.343Z,69.45
2019-01-23T02:45:46.869Z,69.60
2019-01-23T02:48:28.157Z,69.66
2019-01-23T02:51:37.268Z,69.50
2019-01-23T02:54:26.495Z,69.48
2019-01-23T02:57:36.797Z,69.41
2019-01-23T03:03:26.542Z,69.36
2019-01-23T03:06:08.462Z,69.37
2019-01-23T03:08:59.298Z,69.36
2019-01-23T03:11:51.535Z,69.33
2019-01-23T03:15:01.066Z,69.32
2019-01-23T03:17:50.407Z,69.26
2019-01-23T03:20:51.743Z,69.20
2019-01-23T03:23:33.834Z,69.14
2019-01-23T03:26:04.965Z,69.08
2019-01-23T03:29:13.109Z,68.93
2019-01-23T03:34:57.890Z,68.76
2019-01-23T03:37:47.231Z,68.76
2019-01-23T03:40:28.831Z,68.79
2019-01-23T03:42:59.243Z,68.93
2019-01-23T03:45:40.930Z,69.00
2019-01-23T03:48:12.450Z,68.99
2019-01-23T03:51:23.581Z,68.98
2019-01-23T03:54:05.773Z,69.07
2019-01-23T03:56:57.860Z,69.19
2019-01-23T03:59:32.241Z,69.18
2019-01-23T04:02:21.933Z,69.01
2019-01-23T04:05:03.551Z,68.85
2019-01-23T04:11:15.938Z,68.74
2019-01-23T04:14:06.676Z,68.76
2019-01-23T04:16:37.451Z,68.67
2019-01-23T04:19:08.015Z,68.63
2019-01-23T04:24:31.903Z,68.69
2019-01-23T04:27:02.619Z,68.61
2019-01-23T04:32:55.291Z,68.62
2019-01-23T04:35:45.685Z,68.46
2019-01-23T04:38:16.156Z,68.47
2019-01-23T04:41:05.570Z,68.48
2019-01-23T04:44:14.757Z,68.51
2019-01-23T04:50:13.763Z,68.44
2019-01-23T04:55:57.496Z,68.45
2019-01-23T04:58:39.285Z,68.40
2019-01-23T05:04:21.580Z,68.41
2019-01-23T05:10:39.672Z,68.15
2019-01-23T05:13:10.749Z,68.25
2019-01-23T05:21:52.482Z,68.48
2019-01-23T05:24:41.386Z,68.54
2019-01-23T05:27:30.603Z,68.59
2019-01-23T05:33:03.560Z,68.33
2019-01-23T05:38:43.143Z,68.19
2019-01-23T05:41:15.487Z,68.08
2019-01-23T05:44:23.141Z,68.00
2019-01-23T05:50:11.715Z,67.89
2019-01-23T05:53:00.717Z,67.97
2019-01-23T05:55:30.849Z,67.98
2019-01-23T05:58:21.292Z,67.90
2019-01-23T06:00:51.458Z,67.80
2019-01-23T06:03:33.178Z,67.56
2019-01-23T06:09:40.304Z,67.42
2019-01-23T06:12:12.933Z,67.34
2019-01-23T06:18:13.524Z,67.21
2019-01-23T06:20:43.902Z,67.15
2019-01-23T06:23:32.840Z,67.08
2019-01-23T06:26:13.726Z,67.07
2019-01-23T06:28:44.871Z,67.02
2019-01-23T06:31:16.366Z,66.91
2019-01-23T06:34:23.916Z,66.91
2019-01-23T06:39:48.180Z,66.73
2019-01-23T06:42:37.024Z,66.70
2019-01-23T06:45:18.501Z,66.64
2019-01-23T06:47:49.546Z,66.43
2019-01-23T06:50:21.404Z,66.28
2019-01-23T06:53:02.770Z,66.23
2019-01-23T06:55:44.254Z,66.13
2019-01-23T06:58:25.529Z,66.12
2019-01-23T07:01:07.313Z,66.14
2019-01-23T07:03:56.361Z,66.08
2019-01-23T07:06:30.178Z,66.00
2019-01-23T07:09:05.642Z,65.93
2019-01-23T07:14:41.167Z,66.03
2019-01-23T07:17:49.191Z,66.11
2019-01-23T07:21:00.092Z,66.11
2019-01-23T07:29:42.233Z,65.96
2019-01-23T07:32:12.898Z,66.00
2019-01-23T07:34:43.421Z,66.24
2019-01-23T07:43:18.787Z,66.32
2019-01-23T07:45:59.918Z,66.40
2019-01-23T07:48:41.382Z,66.38
2019-01-23T07:57:21.713Z,66.15
2019-01-23T07:59:55.715Z,66.15
2019-01-23T08:05:34.718Z,66.22
2019-01-23T08:11:17.636Z,66.28
2019-01-23T08:14:09.231Z,66.26
2019-01-23T08:16:58.065Z,66.42
2019-01-23T08:19:47.151Z,66.44
2019-01-23T08:22:21.529Z,66.00
2019-01-23T08:24:51.580Z,65.88
2019-01-23T08:27:21.662Z,65.79
2019-01-23T08:29:52.997Z,65.65
2019-01-23T08:32:24.993Z,65.65
2019-01-23T08:34:55.310Z,65.57
2019-01-23T08:37:25.175Z,65.48
2019-01-23T08:39:56.588Z,65.48
2019-01-23T08:42:45.599Z,65.18
2019-01-23T08:45:27.134Z,64.95
2019-01-23T08:47:58.686Z,64.49
2019-01-23T08:50:47.645Z,64.29
2019-01-23T08:53:38.030Z,64.02
2019-01-23T08:56:28.841Z,63.68
2019-01-23T08:59:18.046Z,63.38
2019-01-23T09:02:07.424Z,63.17
2019-01-23T09:04:37.808Z,62.70
2019-01-23T09:07:26.760Z,62.46
2019-01-23T09:10:17.154Z,62.46
2019-01-23T09:12:47.795Z,62.26
2019-01-23T09:15:36.742Z,61.92
2019-01-23T09:18:27.966Z,61.77
2019-01-23T09:20:59.301Z,61.51
2019-01-23T09:23:50.037Z,61.19
2019-01-23T09:26:20.645Z,60.97
2019-01-23T09:28:50.712Z,60.61
2019-01-23T09:31:42.483Z,60.48
2019-01-23T09:34:45.932Z,60.03
2019-01-23T09:37:53.536Z,59.74
2019-01-23T09:40:45.928Z,59.61
2019-01-23T09:47:16.852Z,59.51
2019-01-23T09:50:34.124Z,59.42
2019-01-23T09:53:30.032Z,59.09
2019-01-23T09:59:04.206Z,59.43
2019-01-23T10:01:44.705Z,59.75
2019-01-23T10:04:17.659Z,59.85
2019-01-23T10:07:27.334Z,60.26
2019-01-23T10:10:00.816Z,60.84
2019-01-23T10:12:31.741Z,60.90
2019-01-23T10:15:05.010Z,61.21
2019-01-23T10:17:56.608Z,61.37
2019-01-23T10:20:45.979Z,61.38
2019-01-23T10:23:38.166Z,61.31
2019-01-23T10:26:27.893Z,61.04
2019-01-23T10:29:09.469Z,60.80
2019-01-23T10:31:51.170Z,60.32
2019-01-23T10:34:41.791Z,59.88
2019-01-23T10:37:12.698Z,59.89
2019-01-23T10:39:44.027Z,59.90
2019-01-23T10:42:33.120Z,60.10
2019-01-23T10:45:23.913Z,60.23
2019-01-23T10:48:04.670Z,60.45
2019-01-23T10:50:45.685Z,60.43
2019-01-23T10:53:57.889Z,60.63
2019-01-23T10:56:48.160Z,60.70
2019-01-23T11:05:10.992Z,61.31
2019-01-23T11:08:01.705Z,61.18
2019-01-23T11:10:34.804Z,61.34
2019-01-23T11:13:10.752Z,61.37
2019-01-23T11:15:40.792Z,61.69
2019-01-23T11:18:14.910Z,61.50
2019-01-23T11:20:45.873Z,61.38
2019-01-23T11:23:26.346Z,61.63
2019-01-23T11:26:06.857Z,61.50
2019-01-23T11:28:36.873Z,61.26
2019-01-23T11:31:20.324Z,60.81
2019-01-23T11:33:47.688Z,60.74
2019-01-23T11:36:18.050Z,60.25
2019-01-23T11:38:48.693Z,60.11
2019-01-23T11:41:58.000Z,59.66
2019-01-23T11:45:05.870Z,59.39
2019-01-23T11:47:42.573Z,59.31
2019-01-23T11:50:21.291Z,59.04
2019-01-23T11:52:52.867Z,58.64
2019-01-23T11:58:40.493Z,58.04
2019-01-23T12:01:51.599Z,57.73
2019-01-23T12:04:42.273Z,57.67
2019-01-23T12:07:51.726Z,57.76
2019-01-23T12:10:25.415Z,58.03
2019-01-23T12:16:11.880Z,58.33
2019-01-23T12:19:13.122Z,58.84
2019-01-23T12:21:54.163Z,59.05
2019-01-23T12:24:36.133Z,58.76
2019-01-23T12:30:35.458Z,58.43
2019-01-23T12:33:25.500Z,58.38
2019-01-23T12:39:25.639Z,58.34
2019-01-23T12:45:20.956Z,58.28
2019-01-23T12:47:59.092Z,58.06
2019-01-23T12:50:33.364Z,58.13
2019-01-23T12:53:22.535Z,58.32
2019-01-23T12:56:13.628Z,58.61
2019-01-23T13:02:15.075Z,59.14
2019-01-23T13:08:00.446Z,59.19
2019-01-23T13:11:11.050Z,59.32
2019-01-23T13:13:43.751Z,59.56
2019-01-23T13:16:21.555Z,59.71
2019-01-23T13:18:54.284Z,59.64
2019-01-23T13:21:25.197Z,59.50
2019-01-23T13:27:06.885Z,59.43
2019-01-23T13:36:32.653Z,59.75
2019-01-23T13:42:30.255Z,59.13
2019-01-23T13:45:06.918Z,58.69
2019-01-23T13:48:16.120Z,58.91
2019-01-23T13:50:50.198Z,59.27
2019-01-23T13:53:31.847Z,59.67
2019-01-23T13:56:03.506Z,59.90
2019-01-23T13:58:41.924Z,59.40
2019-01-23T14:01:15.877Z,58.88
2019-01-23T14:03:49.440Z,58.52
2019-01-23T14:06:22.122Z,58.32
2019-01-23T14:08:53.360Z,58.34
2019-01-23T14:11:43.053Z,58.07
2019-01-23T14:14:32.523Z,58.27
2019-01-23T14:17:16.936Z,58.81
2019-01-23T14:19:58.154Z,59.31
2019-01-23T14:22:40.219Z,59.81
2019-01-23T14:31:29.195Z,61.25
2019-01-23T14:34:10.832Z,61.53
2019-01-23T14:39:44.147Z,61.96
2019-01-23T14:42:16.405Z,62.03
2019-01-23T14:44:47.371Z,62.19
2019-01-23T14:47:18.549Z,62.44
2019-01-23T14:49:50.440Z,62.75
2019-01-23T14:52:21.058Z,62.79
2019-01-23T14:54:51.204Z,62.94
2019-01-23T14:57:21.702Z,62.84
2019-01-23T14:59:58.136Z,62.81
2019-01-23T15:02:29.342Z,62.72
2019-01-23T15:05:04.072Z,62.88
2019-01-23T15:07:35.804Z,63.06
2019-01-23T15:10:08.948Z,63.10
2019-01-23T15:12:41.679Z,63.16
2019-01-23T15:15:28.544Z,63.47
2019-01-23T15:18:03.992Z,63.60
2019-01-23T15:20:43.538Z,63.82
2019-01-23T15:23:15.349Z,64.10
2019-01-23T15:25:45.865Z,64.24
2019-01-23T15:28:16.710Z,64.48
2019-01-23T15:33:46.134Z,65.01
2019-01-23T15:36:21.706Z,65.22
2019-01-23T15:38:52.094Z,65.33
2019-01-23T15:41:22.368Z,65.50
2019-01-23T15:43:56.167Z,65.77
2019-01-23T15:46:26.011Z,65.85
2019-01-23T15:48:56.609Z,65.93
2019-01-23T15:51:27.254Z,66.17
2019-01-23T15:53:58.396Z,66.28
2019-01-23T15:56:28.743Z,66.39
2019-01-23T15:58:59.243Z,66.38
2019-01-23T16:01:29.358Z,66.27
2019-01-23T16:04:07.363Z,66.28
2019-01-23T16:06:37.302Z,66.34
2019-01-23T16:09:08.247Z,66.53
2019-01-23T16:11:38.088Z,66.60
2019-01-23T16:14:08.455Z,66.73
2019-01-23T16:16:38.329Z,66.85
2019-01-23T16:19:08.106Z,66.83
2019-01-23T16:21:38.108Z,66.89
2019-01-23T16:24:08.340Z,67.01
2019-01-23T16:26:38.647Z,67.16
2019-01-23T16:29:11.619Z,67.31
2019-01-23T16:31:41.433Z,67.36
2019-01-23T16:34:11.550Z,67.56
2019-01-23T16:36:41.879Z,67.85
2019-01-23T16:39:12.186Z,67.99
2019-01-23T16:41:42.148Z,68.12
2019-01-23T16:44:12.554Z,68.24
2019-01-23T16:46:42.515Z,68.38
2019-01-23T16:49:12.505Z,68.49
2019-01-23T16:51:42.559Z,68.73
2019-01-23T16:54:12.995Z,68.88
2019-01-23T16:56:43.184Z,68.99
2019-01-23T16:59:13.582Z,69.10
2019-01-23T17:01:44.002Z,69.27
2019-01-23T17:04:14.085Z,69.34
2019-01-23T17:06:44.398Z,69.32
2019-01-23T17:09:14.390Z,69.40
2019-01-23T17:11:44.491Z,69.41
2019-01-23T17:14:14.403Z,69.34
2019-01-23T17:16:44.591Z,69.32
2019-01-23T17:19:14.828Z,69.17
2019-01-23T17:21:45.290Z,69.23
2019-01-23T17:24:54.189Z,69.26
2019-01-23T17:33:37.287Z,69.13
2019-01-23T17:36:47.973Z,69.19
2019-01-23T17:39:38.186Z,69.17
2019-01-23T17:42:09.224Z,69.12
2019-01-23T17:44:39.721Z,69.00
2019-01-23T17:47:13.273Z,68.92
2019-01-23T17:49:43.479Z,68.84
2019-01-23T17:52:14.515Z,68.67
2019-01-23T17:54:47.566Z,68.50
2019-01-23T17:57:17.626Z,68.47
2019-01-23T17:59:47.683Z,68.48
2019-01-23T18:02:22.502Z,68.37
2019-01-23T18:04:52.797Z,68.28
2019-01-23T18:07:22.834Z,67.81
2019-01-23T18:09:55.992Z,67.39
2019-01-23T18:12:26.064Z,67.24
2019-01-23T18:14:59.988Z,67.04
2019-01-23T18:17:30.355Z,66.98
2019-01-23T18:20:02.533Z,66.87
2019-01-23T18:22:34.171Z,66.78
2019-01-23T18:25:07.930Z,66.63
2019-01-23T18:27:42.101Z,66.51
2019-01-23T18:30:17.870Z,66.42
2019-01-23T18:32:51.875Z,66.30
2019-01-23T18:36:16.597Z,66.06
2019-01-23T18:39:14.656Z,66.05
2019-01-23T18:42:11.847Z,66.10
2019-01-23T18:45:19.195Z,66.16
2019-01-23T18:48:39.426Z,66.32
2019-01-23T18:51:27.831Z,66.30
2019-01-23T18:54:01.492Z,66.43
2019-01-23T18:56:33.824Z,66.59
2019-01-23T18:59:06.885Z,66.60
2019-01-23T19:01:39.058Z,66.70
2019-01-23T19:04:13.286Z,66.94
2019-01-23T19:06:52.666Z,67.22
2019-01-23T19:09:28.488Z,67.33
2019-01-23T19:12:05.135Z,67.31
2019-01-23T19:14:38.813Z,67.35
2019-01-23T19:17:18.881Z,67.35
2019-01-23T19:19:51.312Z,67.23
2019-01-23T19:22:24.407Z,67.09
2019-01-23T19:24:57.103Z,67.03
2019-01-23T19:27:29.313Z,66.93
2019-01-23T19:30:09.243Z,66.72
2019-01-23T19:32:42.629Z,66.67
2019-01-23T19:35:22.209Z,66.76
2019-01-23T19:41:37.966Z,66.94
2019-01-23T19:44:20.114Z,66.95
2019-01-23T19:49:51.479Z,66.87
2019-01-23T19:52:52.439Z,66.91
2019-01-23T19:55:36.392Z,66.92
2019-01-23T19:58:21.407Z,66.95
2019-01-23T20:00:59.406Z,66.73
2019-01-23T20:03:33.644Z,66.55
2019-01-23T20:06:11.652Z,66.46
2019-01-23T20:12:43.636Z,66.54
2019-01-23T20:15:26.314Z,66.53
2019-01-23T20:18:11.577Z,66.71
2019-01-23T20:20:54.076Z,66.86
2019-01-23T20:23:47.379Z,66.71
2019-01-23T20:26:33.811Z,66.66
2019-01-23T20:29:08.134Z,66.56
2019-01-23T20:31:46.266Z,66.38
2019-01-23T20:34:24.756Z,66.42
2019-01-23T20:37:03.449Z,66.33
2019-01-23T20:39:37.075Z,66.16
2019-01-23T20:42:10.792Z,66.05
2019-01-23T20:44:44.513Z,65.83
2019-01-23T20:47:20.862Z,65.87
2019-01-23T20:49:54.816Z,65.73
2019-01-23T20:52:28.468Z,65.70
2019-01-23T20:55:03.299Z,65.63
2019-01-23T20:57:41.334Z,65.73
2019-01-23T21:00:23.644Z,65.59
2019-01-23T21:02:57.392Z,65.47
2019-01-23T21:05:30.813Z,65.64
2019-01-23T21:08:02.981Z,65.78
2019-01-23T21:10:38.553Z,65.94
2019-01-23T21:13:09.365Z,66.08
2019-01-23T21:15:40.258Z,66.03
2019-01-23T21:18:11.219Z,66.00
2019-01-23T21:20:45.462Z,65.78
2019-01-23T21:23:22.473Z,65.60
2019-01-23T21:25:53.103Z,65.44
2019-01-23T21:28:23.663Z,65.38
2019-01-23T21:31:00.099Z,65.50
2019-01-23T21:33:33.034Z,65.55
2019-01-23T21:36:04.386Z,65.52
2019-01-23T21:38:34.803Z,65.32
2019-01-23T21:41:05.239Z,65.38
2019-01-23T21:47:05.708Z,65.36
2019-01-23T21:49:48.549Z,65.39
2019-01-23T21:52:20.078Z,65.49
2019-01-23T21:58:53.772Z,65.43
2019-01-23T22:01:44.456Z,65.26
2019-01-23T22:07:44.576Z,65.33
2019-01-23T22:10:14.892Z,65.25
2019-01-23T22:12:44.858Z,65.28
2019-01-23T22:15:20.206Z,65.03
2019-01-23T22:17:56.989Z,65.05
2019-01-23T22:20:45.876Z,65.06
2019-01-23T22:26:35.609Z,65.23
2019-01-23T22:32:09.274Z,65.25
2019-01-23T22:34:40.069Z,65.06
2019-01-23T22:37:10.484Z,65.06
2019-01-23T22:39:41.113Z,65.30
2019-01-23T22:42:13.097Z,65.31
2019-01-23T22:44:44.014Z,65.40
2019-01-23T22:47:14.087Z,65.47
2019-01-23T22:49:44.461Z,65.59
2019-01-23T22:52:25.823Z,65.73
2019-01-23T22:55:08.107Z,65.91
2019-01-23T22:57:52.804Z,65.86
2019-01-23T23:00:38.148Z,65.98
2019-01-23T23:03:23.562Z,66.00
2019-01-23T23:06:05.650Z,66.13
2019-01-23T23:08:48.121Z,66.19
2019-01-23T23:14:19.085Z,66.13
2019-01-23T23:17:28.255Z,66.12
2019-01-23T23:20:19.219Z,65.94
2019-01-23T23:37:38.730Z,66.58
2019-01-23T23:43:23.851Z,66.16
2019-01-23T23:46:33.143Z,66.24
2019-01-23T23:49:32.893Z,66.37
2019-01-23T23:52:14.639Z,66.28
2019-01-23T23:55:15.760Z,66.04
2019-01-23T23:57:56.149Z,65.86
